Rutheron, New Mexico
Current Conditions -  °F | °C
As of 6:55 PM on Monday 24 Nov 2014 (Local Time) from KPSO Reporting Station
Clear Clear  
Wind Chill: 23°   Ceiling: Unl
Heat Index: 23°   Visibility: 10mi
Dew Point:   Wind: 0mph
Humidity: 45%   Direction: NA
Pressure: 30.24"   Gusts: NA
Location:  36.7516°N, 106.56°W
Report Text: KPSO 250155Z AUTO 00000KT 10SM CLR M05/M15 A3024 RMK AO2 T10521154
Loading
Personal Weather Stations






























Interactive Weather Map New forecast layout! Learn more

10-Day Weather Forecast

Advertisements
Track Severe Weather on mobile